Time;durP1;ratioP1;P1;durP2;ratioP2;P2;SDS_P1;SDS_P2;PMS_P1;PMS_P2;Temp;Humidity;BMP_temperature;BMP_pressure;BME280_temperature;BME280_humidity;BME280_pressure;Samples;Min_cycle;Max_cycle;Signal;HPM_P1;HPM_P2
2021/08/31 00:02:06;;;;;;;23.75;9.95;;;;;;;14.16;90.64;102599.94;5067623;28;20183;-67
2021/08/31 00:04:31;;;;;;;22.60;10.30;;;;;;;14.20;90.49;102607.75;5068443;28;20029;-67
2021/08/31 00:06:57;;;;;;;20.20;10.48;;;;;;;14.25;90.58;102605.81;5084439;28;20028;-69
2021/08/31 00:09:22;;;;;;;22.30;9.88;;;;;;;14.29;90.29;102603.94;5087303;28;20460;-68
2021/08/31 00:11:47;;;;;;;20.05;10.13;;;;;;;14.30;90.36;102594.16;5087755;28;20081;-68
2021/08/31 00:14:13;;;;;;;24.55;10.52;;;;;;;14.29;90.31;102605.72;5087424;28;20024;-67
2021/08/31 00:16:40;;;;;;;21.33;10.15;;;;;;;14.31;90.53;102601.19;5084421;28;20379;-67
2021/08/31 00:19:06;;;;;;;19.73;9.82;;;;;;;14.30;90.45;102602.16;5087410;28;20043;-69
2021/08/31 00:21:31;;;;;;;23.40;9.50;;;;;;;14.27;90.13;102605.75;5087399;28;20424;-67
2021/08/31 00:23:56;;;;;;;19.33;9.68;;;;;;;14.27;90.64;102611.09;5087634;28;20169;-68
2021/08/31 00:26:22;;;;;;;23.35;9.80;;;;;;;14.29;90.90;102603.94;5076561;28;20090;-66
2021/08/31 00:28:47;;;;;;;20.63;10.35;;;;;;;14.38;90.98;102603.63;5070397;28;20086;-67
2021/08/31 00:31:12;;;;;;;26.13;10.00;;;;;;;14.45;90.26;102614.09;5071032;28;20028;-66
2021/08/31 00:33:38;;;;;;;18.30;9.88;;;;;;;14.45;90.15;102606.09;5070935;28;20062;-67
2021/08/31 00:36:04;;;;;;;22.17;10.00;;;;;;;14.43;90.08;102615.00;5072440;28;20436;-68
2021/08/31 00:38:31;;;;;;;22.35;9.90;;;;;;;14.42;90.16;102605.28;5071779;28;20108;-66
2021/08/31 00:40:57;;;;;;;21.05;9.40;;;;;;;14.42;90.21;102621.28;5081141;28;20024;-67
2021/08/31 00:43:22;;;;;;;20.02;9.68;;;;;;;14.45;90.48;102619.41;5091230;28;20040;-67
2021/08/31 00:45:48;;;;;;;26.15;10.18;;;;;;;14.41;90.03;102615.97;5091211;28;20039;-67
2021/08/31 00:48:17;;;;;;;19.42;9.38;;;;;;;14.37;90.07;102609.91;5086865;28;20038;-66
2021/08/31 00:50:43;;;;;;;19.55;9.50;;;;;;;14.31;90.18;102615.41;5090478;28;20054;-67
2021/08/31 00:53:09;;;;;;;19.02;9.32;;;;;;;14.22;89.98;102613.91;5090636;28;20016;-69
2021/08/31 00:55:35;;;;;;;20.40;10.10;;;;;;;14.17;90.63;102610.53;5090788;28;20054;-67
2021/08/31 00:58:00;;;;;;;22.40;10.35;;;;;;;14.14;90.97;102615.94;5087999;28;20051;-66
2021/08/31 01:00:26;;;;;;;23.45;10.63;;;;;;;14.11;91.24;102618.72;5089332;28;20032;-68
2021/08/31 01:02:52;;;;;;;24.08;10.45;;;;;;;14.09;91.09;102615.22;5090598;28;20107;-67
2021/08/31 01:05:17;;;;;;;19.48;9.95;;;;;;;14.08;91.19;102625.00;5090712;28;20032;-69
2021/08/31 01:07:42;;;;;;;18.52;9.65;;;;;;;14.04;91.24;102623.38;5088371;28;20436;-67
2021/08/31 01:10:09;;;;;;;25.13;10.40;;;;;;;13.99;91.48;102617.31;5088544;28;20024;-67
2021/08/31 01:12:35;;;;;;;21.55;10.98;;;;;;;13.96;91.41;102629.84;5090390;28;20472;-67
2021/08/31 01:15:00;;;;;;;18.88;10.25;;;;;;;13.92;91.68;102624.59;5090379;28;20119;-66
2021/08/31 01:17:29;;;;;;;28.77;11.20;;;;;;;13.87;91.80;102621.19;5090257;28;20048;-70
2021/08/31 01:19:55;;;;;;;22.13;11.07;;;;;;;13.84;91.80;102623.97;5086453;28;20031;-67
2021/08/31 01:22:21;;;;;;;24.52;11.27;;;;;;;13.81;92.01;102626.72;5090127;28;20068;-68
2021/08/31 01:24:56;;;;;;;25.00;10.55;;;;;;;13.77;92.23;102625.94;5090118;28;20153;-67
2021/08/31 01:27:23;;;;;;;23.20;11.15;;;;;;;13.74;92.14;102631.34;5089747;28;20082;-68
2021/08/31 01:29:49;;;;;;;23.80;11.00;;;;;;;13.73;92.24;102620.75;5086752;28;20067;-67
2021/08/31 01:32:14;;;;;;;26.80;11.38;;;;;;;13.70;92.54;102631.50;5090429;28;20032;-68
2021/08/31 01:34:40;;;;;;;21.92;10.27;;;;;;;13.66;91.95;102635.13;5089516;28;20097;-67
2021/08/31 01:37:09;;;;;;;22.98;11.73;;;;;;;13.68;92.60;102638.66;5090223;28;20423;-67
2021/08/31 01:39:34;;;;;;;21.48;11.18;;;;;;;13.70;92.78;102634.16;5072850;28;20036;-66
2021/08/31 01:41:59;;;;;;;22.50;10.95;;;;;;;13.70;92.60;102632.34;5069493;28;20111;-67
2021/08/31 01:44:25;;;;;;;29.02;10.70;;;;;;;13.71;92.89;102638.56;5069487;28;20025;-68
2021/08/31 01:46:50;;;;;;;27.48;10.98;;;;;;;13.71;92.78;102639.44;5069527;28;20488;-67
2021/08/31 01:49:15;;;;;;;23.58;10.45;;;;;;;13.71;92.63;102634.09;5070523;28;20101;-68
2021/08/31 01:51:41;;;;;;;20.58;10.45;;;;;;;13.73;92.93;102640.28;5070746;28;20092;-67
2021/08/31 01:54:06;;;;;;;18.85;9.63;;;;;;;13.77;92.87;102638.38;5069328;28;20408;-67
2021/08/31 01:56:31;;;;;;;26.70;10.75;;;;;;;13.80;92.85;102646.28;5069263;28;20053;-67
2021/08/31 01:58:57;;;;;;;26.40;10.45;;;;;;;13.79;92.55;102641.88;5069278;28;20043;-65
2021/08/31 02:01:22;;;;;;;24.92;10.85;;;;;;;13.79;92.79;102639.19;5071365;28;20044;-69
2021/08/31 02:03:47;;;;;;;26.33;11.15;;;;;;;13.80;92.55;102640.94;5069818;28;20052;-69
2021/08/31 02:06:13;;;;;;;22.27;10.68;;;;;;;13.81;92.58;102640.03;5069267;28;20063;-67
2021/08/31 02:08:38;;;;;;;23.55;10.20;;;;;;;13.80;92.32;102648.06;5069573;28;20387;-71
2021/08/31 02:11:03;;;;;;;23.55;10.45;;;;;;;13.79;92.69;102641.00;5070100;28;20112;-72
2021/08/31 02:13:28;;;;;;;22.90;9.75;;;;;;;13.75;92.59;102648.22;5069562;28;20671;-66
2021/08/31 02:15:54;;;;;;;22.42;9.90;;;;;;;13.72;92.54;102646.50;5068689;28;20032;-67
2021/08/31 02:18:19;;;;;;;23.92;10.30;;;;;;;13.71;92.87;102644.75;5069131;28;20111;-66
2021/08/31 02:20:44;;;;;;;19.73;10.18;;;;;;;13.68;92.61;102643.97;5069846;28;20044;-68
2021/08/31 02:23:10;;;;;;;23.20;10.95;;;;;;;13.65;92.54;102644.94;5070105;28;20042;-67
2021/08/31 02:25:35;;;;;;;21.27;10.57;;;;;;;13.62;92.65;102645.03;5068544;28;20259;-66
2021/08/31 02:28:01;;;;;;;21.55;10.32;;;;;;;13.58;92.75;102640.69;5068867;28;20116;-69
2021/08/31 02:30:27;;;;;;;24.80;10.70;;;;;;;13.54;92.74;102637.28;5069674;28;20190;-64
2021/08/31 02:32:53;;;;;;;23.10;10.63;;;;;;;13.50;92.79;102632.91;5069805;28;20094;-67
2021/08/31 02:35:19;;;;;;;21.80;10.57;;;;;;;13.47;92.87;102635.69;5068838;28;20020;-71
2021/08/31 02:37:44;;;;;;;19.80;9.85;;;;;;;13.44;92.90;102627.81;5068259;28;20024;-67
2021/08/31 02:40:11;;;;;;;18.38;9.77;;;;;;;13.41;92.96;102636.75;5068917;28;20025;-67
2021/08/31 02:42:37;;;;;;;20.48;9.88;;;;;;;13.38;92.75;102641.28;5069228;28;20104;-68
2021/08/31 02:45:03;;;;;;;27.00;10.85;;;;;;;13.34;93.08;102635.13;5068873;28;20444;-70
2021/08/31 02:47:29;;;;;;;22.13;9.73;;;;;;;13.30;93.13;102632.59;5068535;28;20047;-70
2021/08/31 02:49:54;;;;;;;17.80;9.52;;;;;;;13.27;93.07;102636.19;5067971;28;20418;-67
2021/08/31 02:52:19;;;;;;;16.52;9.23;;;;;;;13.22;92.99;102635.44;5068909;28;20024;-66
2021/08/31 02:54:45;;;;;;;23.35;9.52;;;;;;;13.19;92.74;102632.88;5069466;28;20055;-66
2021/08/31 02:57:10;;;;;;;21.85;10.10;;;;;;;13.18;93.29;102636.47;5068349;28;20032;-67
2021/08/31 02:59:35;;;;;;;16.30;9.05;;;;;;;13.13;92.89;102627.72;5068047;28;20422;-67
2021/08/31 03:02:07;;;;;;;19.98;9.73;;;;;;;13.11;93.13;102636.63;5069268;28;20024;-68
2021/08/31 03:04:35;;;;;;;22.98;10.57;;;;;;;13.09;92.85;102633.16;5069460;28;20028;-67
2021/08/31 03:07:04;;;;;;;19.88;9.90;;;;;;;13.09;93.35;102635.81;5068418;28;20025;-68
2021/08/31 03:09:30;;;;;;;21.35;9.38;;;;;;;13.07;93.33;102640.28;5068047;28;20029;-67
2021/08/31 03:11:55;;;;;;;23.83;10.43;;;;;;;13.08;93.22;102638.47;5067898;28;20065;-66
2021/08/31 03:14:21;;;;;;;22.88;9.90;;;;;;;13.06;93.54;102638.53;5069336;28;20536;-67
2021/08/31 03:16:47;;;;;;;25.83;9.65;;;;;;;13.06;93.37;102645.66;5069372;28;20488;-66
2021/08/31 03:19:14;;;;;;;21.00;9.43;;;;;;;13.04;92.92;102642.13;5068129;28;20052;-68
2021/08/31 03:21:39;;;;;;;23.65;9.98;;;;;;;13.00;93.21;102635.16;5068033;28;20134;-67
2021/08/31 03:24:05;;;;;;;19.55;9.57;;;;;;;12.98;93.12;102642.28;5050358;28;20429;-67
2021/08/31 03:26:30;;;;;;;17.40;9.05;;;;;;;12.95;93.08;102643.25;5069064;28;20132;-70
2021/08/31 03:28:56;;;;;;;23.67;9.88;;;;;;;12.93;93.28;102630.00;5067501;28;20102;-66
2021/08/31 03:31:21;;;;;;;20.67;9.98;;;;;;;12.95;93.31;102635.28;5067769;28;20410;-67
2021/08/31 03:33:46;;;;;;;19.75;9.77;;;;;;;12.99;93.76;102634.28;5070043;28;20377;-66
2021/08/31 03:36:12;;;;;;;23.60;9.13;;;;;;;12.98;93.69;102644.97;5067879;28;20465;-68
2021/08/31 03:38:37;;;;;;;20.13;10.32;;;;;;;12.98;93.85;102643.19;5070449;28;20042;-68
2021/08/31 03:41:02;;;;;;;25.63;9.38;;;;;;;13.00;94.30;102649.31;5088080;28;20024;-67
2021/08/31 03:43:27;;;;;;;25.95;10.73;;;;;;;13.02;94.28;102647.50;5086341;28;20034;-67
2021/08/31 03:45:53;;;;;;;18.15;8.80;;;;;;;13.02;94.07;102644.84;5086076;28;20036;-66
2021/08/31 03:48:18;;;;;;;25.60;9.80;;;;;;;13.02;93.94;102646.63;5087815;28;20032;-66
2021/08/31 03:50:43;;;;;;;19.98;9.00;;;;;;;12.99;94.03;102658.19;5088312;28;20375;-67
2021/08/31 03:53:10;;;;;;;20.50;9.38;;;;;;;12.97;94.09;102659.16;5087914;28;20369;-68
2021/08/31 03:55:35;;;;;;;21.35;9.68;;;;;;;12.95;94.28;102654.78;5084603;28;20437;-68
2021/08/31 03:58:05;;;;;;;23.67;9.57;;;;;;;12.93;94.63;102653.06;5087737;28;20071;-67
2021/08/31 04:00:30;;;;;;;21.95;10.23;;;;;;;12.94;94.26;102650.38;5088004;28;20028;-67
2021/08/31 04:02:56;;;;;;;18.80;8.43;;;;;;;12.93;94.53;102653.94;5089103;28;20099;-69
2021/08/31 04:05:21;;;;;;;19.13;8.65;;;;;;;12.90;94.01;102651.38;5088500;28;20131;-67
2021/08/31 04:07:46;;;;;;;24.25;10.00;;;;;;;12.89;94.29;102646.06;5091496;28;20076;-67
2021/08/31 04:10:12;;;;;;;22.30;10.32;;;;;;;12.88;94.69;102655.84;5091368;28;20087;-68
2021/08/31 04:12:37;;;;;;;21.77;9.57;;;;;;;12.87;94.38;102659.41;5092113;28;20433;-67
2021/08/31 04:15:04;;;;;;;20.60;9.55;;;;;;;12.86;94.66;102662.97;5089318;28;20431;-67
2021/08/31 04:17:29;;;;;;;20.25;9.50;;;;;;;12.87;94.69;102669.19;5089623;28;20123;-67
2021/08/31 04:19:54;;;;;;;21.33;9.73;;;;;;;12.85;94.49;102669.22;5090435;28;20420;-69
2021/08/31 04:22:20;;;;;;;17.80;8.70;;;;;;;12.83;94.07;102672.84;5091675;28;20040;-68
2021/08/31 04:24:45;;;;;;;20.92;9.13;;;;;;;12.81;94.16;102674.63;5090814;28;20086;-67
2021/08/31 04:27:10;;;;;;;23.77;9.52;;;;;;;12.77;94.15;102673.84;5088094;28;20229;-68
2021/08/31 04:29:35;;;;;;;21.80;10.15;;;;;;;12.74;94.16;102684.56;5091092;28;20361;-67
2021/08/31 04:32:01;;;;;;;20.35;9.02;;;;;;;12.72;94.02;102679.25;5091521;28;20040;-67
2021/08/31 04:34:26;;;;;;;17.17;8.85;;;;;;;12.71;94.12;102677.53;5091317;28;20032;-69
2021/08/31 04:36:51;;;;;;;22.08;10.18;;;;;;;12.74;94.37;102677.44;5088935;28;20079;-67
2021/08/31 04:39:17;;;;;;;23.95;10.68;;;;;;;12.76;94.81;102680.94;5090385;28;20028;-68
2021/08/31 04:41:42;;;;;;;21.05;10.30;;;;;;;12.73;94.70;102678.34;5090926;28;20515;-69
2021/08/31 04:44:07;;;;;;;21.00;9.77;;;;;;;12.72;94.27;102676.59;5091181;28;20044;-68
2021/08/31 04:46:33;;;;;;;22.30;10.23;;;;;;;12.71;94.42;102680.19;5082583;28;20052;-67
2021/08/31 04:48:58;;;;;;;17.08;8.80;;;;;;;12.69;94.16;102682.00;5069801;28;20177;-67
2021/08/31 04:51:23;;;;;;;16.83;8.48;;;;;;;12.68;93.59;102671.41;5071023;28;20423;-68
2021/08/31 04:53:48;;;;;;;18.77;8.23;;;;;;;12.64;93.92;102673.25;5070411;28;20119;-66
2021/08/31 04:56:14;;;;;;;18.23;9.07;;;;;;;12.65;93.40;102679.44;5070344;28;20104;-66
2021/08/31 04:58:39;;;;;;;21.85;9.05;;;;;;;12.62;93.59;102688.38;5072355;28;20024;-67
2021/08/31 05:01:05;;;;;;;19.55;9.02;;;;;;;12.61;93.66;102684.84;5070049;28;20094;-68
2021/08/31 05:03:30;;;;;;;25.77;10.20;;;;;;;12.61;93.52;102684.84;5070461;28;20444;-68
2021/08/31 05:05:55;;;;;;;20.77;9.73;;;;;;;12.67;94.09;102688.25;5070521;28;20302;-68
2021/08/31 05:08:21;;;;;;;22.08;10.48;;;;;;;12.70;94.28;102686.41;5071483;28;20040;-67
2021/08/31 05:10:48;;;;;;;23.23;9.38;;;;;;;12.74;93.82;102687.22;5071260;28;20435;-67
2021/08/31 05:13:13;;;;;;;18.65;9.48;;;;;;;12.74;93.85;102687.22;5051858;28;20063;-68
2021/08/31 05:15:39;;;;;;;18.73;8.45;;;;;;;12.75;93.63;102686.31;5070172;28;20473;-70
2021/08/31 05:18:05;;;;;;;20.98;9.30;;;;;;;12.75;93.31;102684.53;5071225;28;20464;-66
2021/08/31 05:20:32;;;;;;;18.50;9.40;;;;;;;12.77;93.18;102688.03;5079854;28;20157;-69
2021/08/31 05:22:57;;;;;;;20.77;9.82;;;;;;;12.79;93.19;102688.84;5090559;28;20084;-67
2021/08/31 05:25:23;;;;;;;22.15;10.00;;;;;;;12.85;93.67;102694.91;5090437;28;20463;-64
2021/08/31 05:27:48;;;;;;;20.63;10.20;;;;;;;12.89;93.55;102697.47;5088471;28;20080;-67
2021/08/31 05:30:14;;;;;;;23.23;10.55;;;;;;;12.95;93.71;102696.44;5088292;28;20609;-66
2021/08/31 05:32:39;;;;;;;20.83;11.52;;;;;;;13.00;93.61;102694.53;5063103;28;20115;-68
2021/08/31 05:35:05;;;;;;;23.70;11.23;;;;;;;13.08;93.71;102695.22;5061377;28;20116;-68
2021/08/31 05:37:30;;;;;;;20.25;11.13;;;;;;;13.13;93.33;102704.88;5069338;28;20436;-67
2021/08/31 05:39:56;;;;;;;20.38;9.98;;;;;;;13.17;93.38;102696.78;5070056;28;20028;-65
2021/08/31 05:42:22;;;;;;;22.52;10.68;;;;;;;13.21;92.81;102702.88;5068120;28;20036;-66
2021/08/31 05:44:47;;;;;;;18.23;9.13;;;;;;;13.27;92.78;102706.25;5050015;28;20106;-65
2021/08/31 05:47:12;;;;;;;19.70;9.18;;;;;;;13.28;92.38;102713.31;5049108;28;20360;-68
2021/08/31 05:49:38;;;;;;;21.15;9.80;;;;;;;13.31;91.95;102715.00;5063644;28;20032;-66
2021/08/31 05:52:04;;;;;;;21.60;9.70;;;;;;;13.34;92.07;102711.41;5070771;28;20032;-67
2021/08/31 05:54:29;;;;;;;24.00;9.45;;;;;;;13.40;92.20;102720.16;5069513;28;20500;-68
2021/08/31 05:56:56;;;;;;;22.15;9.30;;;;;;;13.46;91.92;102728.88;5069929;28;20013;-67
2021/08/31 05:59:21;;;;;;;20.65;9.45;;;;;;;13.50;91.86;102731.41;5070377;28;20085;-67
2021/08/31 06:01:46;;;;;;;19.65;8.90;;;;;;;13.56;91.84;102728.56;5068672;28;20037;-65
2021/08/31 06:04:12;;;;;;;18.83;8.23;;;;;;;13.65;91.54;102726.59;5070653;28;20044;-68
2021/08/31 06:06:38;;;;;;;19.38;8.65;;;;;;;13.71;91.30;102732.63;5069313;28;20056;-71
2021/08/31 06:09:05;;;;;;;19.77;8.27;;;;;;;13.79;91.24;102737.72;5068998;28;20329;-71
2021/08/31 06:11:35;;;;;;;14.85;7.60;;;;;;;13.86;91.04;102741.09;5057765;28;20029;-66
2021/08/31 06:14:00;;;;;;;16.00;7.82;;;;;;;13.93;90.86;102738.19;5048942;28;20072;-68
2021/08/31 06:16:25;;;;;;;15.15;8.13;;;;;;;14.03;90.78;102744.16;5049005;28;20062;-66
2021/08/31 06:18:51;;;;;;;17.38;7.13;;;;;;;14.09;89.85;102751.97;5067818;28;20073;-66
2021/08/31 06:21:16;;;;;;;16.33;7.88;;;;;;;14.15;89.57;102739.38;5069974;28;20182;-67
2021/08/31 06:23:41;;;;;;;16.90;6.78;;;;;;;14.20;89.55;102740.97;5071285;28;20146;-67
2021/08/31 06:26:07;;;;;;;16.30;7.30;;;;;;;14.25;89.11;102746.19;5079016;28;20089;-71
2021/08/31 06:28:33;;;;;;;18.30;6.72;;;;;;;14.34;88.64;102745.03;5086937;28;20120;-66
2021/08/31 06:30:58;;;;;;;18.30;7.45;;;;;;;14.39;88.59;102751.97;5068341;28;20096;-68
2021/08/31 06:33:24;;;;;;;17.50;6.78;;;;;;;14.45;88.51;102761.56;5068638;28;20028;-69
2021/08/31 06:35:49;;;;;;;16.33;7.88;;;;;;;14.51;88.38;102748.03;5079152;28;20439;-68
2021/08/31 06:38:14;;;;;;;14.38;6.75;;;;;;;14.59;88.21;102758.47;5078663;28;20455;-67
2021/08/31 06:40:40;;;;;;;19.88;7.15;;;;;;;14.63;88.49;102760.13;5068830;28;20021;-68
2021/08/31 06:43:05;;;;;;;14.48;6.78;;;;;;;14.72;88.00;102762.53;5069144;28;20024;-71
2021/08/31 06:45:30;;;;;;;18.27;6.30;;;;;;;14.75;87.74;102766.91;5069424;28;20106;-70
2021/08/31 06:47:56;;;;;;;15.75;6.32;;;;;;;14.81;87.71;102760.47;5068113;28;20103;-67
2021/08/31 06:50:21;;;;;;;22.40;7.65;;;;;;;14.84;87.28;102763.94;5068806;28;20024;-68
2021/08/31 06:52:47;;;;;;;18.00;6.80;;;;;;;14.90;87.12;102763.75;5068474;28;20413;-67
2021/08/31 06:55:14;;;;;;;15.48;6.57;;;;;;;14.94;86.88;102764.53;5068733;28;20100;-68
2021/08/31 06:57:39;;;;;;;17.70;6.07;;;;;;;15.00;87.15;102767.00;5086480;28;20052;-72
2021/08/31 07:00:06;;;;;;;19.50;6.18;;;;;;;15.09;87.04;102765.81;5073689;28;20048;-67
2021/08/31 07:02:32;;;;;;;18.70;5.40;;;;;;;15.19;86.88;102771.69;5067002;28;20044;-67
2021/08/31 07:04:57;;;;;;;15.85;6.10;;;;;;;15.19;86.13;102777.03;5067445;28;20399;-66
2021/08/31 07:07:23;;;;;;;17.48;5.97;;;;;;;15.23;85.86;102765.34;5070103;28;20365;-66
2021/08/31 07:09:48;;;;;;;16.42;6.00;;;;;;;15.30;85.89;102763.34;5067890;28;20146;-65
2021/08/31 07:12:13;;;;;;;16.98;5.95;;;;;;;15.36;85.87;102766.69;5068233;28;20029;-67
2021/08/31 07:14:39;;;;;;;19.58;5.65;;;;;;;15.43;85.99;102774.47;5073422;28;20025;-67
2021/08/31 07:17:04;;;;;;;17.95;5.78;;;;;;;15.51;85.62;102765.28;5069803;28;20021;-71
2021/08/31 07:19:30;;;;;;;13.60;5.32;;;;;;;15.61;85.78;102764.94;5069846;28;20108;-67
2021/08/31 07:21:55;;;;;;;16.13;5.25;;;;;;;15.66;84.90;102774.53;5069171;28;20337;-67
2021/08/31 07:24:21;;;;;;;16.55;6.07;;;;;;;15.68;84.08;102772.69;5068248;28;20044;-65
2021/08/31 07:26:47;;;;;;;14.68;6.05;;;;;;;15.76;84.15;102776.91;5068900;28;20078;-67
2021/08/31 07:29:12;;;;;;;17.35;5.57;;;;;;;15.85;83.99;102768.56;5068556;28;20033;-64
2021/08/31 07:31:37;;;;;;;14.98;5.57;;;;;;;15.97;83.72;102770.81;5066840;28;20028;-67
2021/08/31 07:34:03;;;;;;;19.17;4.93;;;;;;;16.05;83.19;102773.19;5067628;28;20051;-67
2021/08/31 07:36:28;;;;;;;16.63;5.60;;;;;;;16.16;83.15;102780.78;5077284;28;20032;-68
2021/08/31 07:38:55;;;;;;;14.02;5.18;;;;;;;16.24;81.85;102775.16;5071789;28;20032;-68
2021/08/31 07:41:21;;;;;;;16.30;5.38;;;;;;;16.27;81.24;102775.91;5071987;28;20034;-66
2021/08/31 07:43:46;;;;;;;17.02;5.22;;;;;;;16.33;81.33;102775.69;5070908;28;20050;-68
2021/08/31 07:46:12;;;;;;;17.15;4.88;;;;;;;16.40;80.74;102776.31;5071434;28;20107;-67
2021/08/31 07:48:38;;;;;;;17.88;4.90;;;;;;;16.41;80.15;102769.16;5068373;28;20314;-66
2021/08/31 07:51:03;;;;;;;15.32;4.55;;;;;;;16.46;79.37;102776.09;5071052;28;20032;-67
2021/08/31 07:53:28;;;;;;;15.15;5.05;;;;;;;16.54;79.50;102775.78;5069606;28;20048;-65
2021/08/31 07:55:54;;;;;;;16.90;5.75;;;;;;;16.63;79.34;102779.91;5060395;28;20070;-68
2021/08/31 07:58:19;;;;;;;15.43;4.95;;;;;;;16.74;78.90;102772.34;5076185;28;20437;-65
2021/08/31 08:00:45;;;;;;;18.15;5.30;;;;;;;16.87;77.37;102781.59;5069307;28;20025;-66
2021/08/31 08:03:10;;;;;;;15.35;5.07;;;;;;;16.91;76.68;102777.03;5069905;28;20029;-66
2021/08/31 08:05:35;;;;;;;12.65;4.70;;;;;;;16.91;76.92;102779.69;5072387;28;20051;-66
2021/08/31 08:08:01;;;;;;;16.75;5.15;;;;;;;16.99;76.13;102787.41;5072716;28;20039;-65
2021/08/31 08:10:26;;;;;;;17.10;5.03;;;;;;;17.04;76.05;102780.91;5071169;28;20024;-66
2021/08/31 08:12:51;;;;;;;11.80;4.50;;;;;;;17.17;75.85;102789.34;5071057;28;20024;-66
2021/08/31 08:15:17;;;;;;;13.68;4.72;;;;;;;17.29;76.07;102793.31;5072372;28;20123;-65
2021/08/31 08:17:42;;;;;;;19.42;6.03;;;;;;;17.35;74.81;102790.38;5069201;28;20330;-65
2021/08/31 08:20:10;;;;;;;13.05;4.50;;;;;;;17.45;75.32;102792.66;5062716;28;20024;-66
2021/08/31 08:22:36;;;;;;;17.33;4.72;;;;;;;17.58;74.13;102788.50;5067690;28;20020;-68
2021/08/31 08:25:03;;;;;;;12.82;4.47;;;;;;;17.76;72.84;102794.00;5069917;28;20128;-69
2021/08/31 08:27:28;;;;;;;11.23;4.78;;;;;;;17.91;71.46;102795.97;5065672;28;20151;-66
2021/08/31 08:29:53;;;;;;;13.02;4.40;;;;;;;18.00;72.13;102803.63;5071759;28;20436;-71
2021/08/31 08:32:20;;;;;;;13.30;4.75;;;;;;;18.06;71.74;102796.28;5070654;28;20111;-66
2021/08/31 08:34:45;;;;;;;13.25;4.47;;;;;;;17.96;70.97;102801.19;5070815;28;20020;-67
2021/08/31 08:37:11;;;;;;;15.60;5.05;;;;;;;17.90;72.00;102798.75;5072610;28;20082;-66
2021/08/31 08:39:37;;;;;;;14.05;4.28;;;;;;;17.93;71.82;102799.50;5071135;28;20035;-67
2021/08/31 08:42:05;;;;;;;13.23;4.32;;;;;;;18.00;71.13;102803.63;5070580;28;20028;-66
2021/08/31 08:44:30;;;;;;;13.65;4.70;;;;;;;17.96;70.65;102795.81;5071140;28;20028;-69
2021/08/31 08:46:56;;;;;;;13.13;4.32;;;;;;;18.04;70.65;102800.84;5071628;28;20451;-67
2021/08/31 08:49:21;;;;;;;10.30;5.13;;;;;;;18.24;70.37;102799.94;5069756;28;20036;-68
2021/08/31 08:51:47;;;;;;;13.18;4.68;;;;;;;18.62;68.46;102794.56;5059684;28;20036;-69
2021/08/31 08:54:13;;;;;;;12.15;4.50;;;;;;;19.03;68.29;102805.16;5054525;28;20024;-67
2021/08/31 08:56:38;;;;;;;16.70;5.00;;;;;;;19.53;65.03;102805.31;5074381;28;20103;-66
2021/08/31 08:59:03;;;;;;;12.60;4.63;;;;;;;19.81;63.53;102805.63;5067262;28;20039;-67
2021/08/31 09:01:41;;;;;;;13.52;4.38;;;;;;;19.72;64.18;102805.25;5073565;28;20376;-65
2021/08/31 09:04:07;;;;;;;15.38;4.50;;;;;;;20.04;63.97;102808.97;5081283;28;20476;-67
2021/08/31 09:06:32;;;;;;;13.75;4.47;;;;;;;20.03;63.93;102807.22;5058561;28;20194;-66
2021/08/31 09:09:01;;;;;;;13.32;4.57;;;;;;;20.24;61.78;102809.69;5065116;28;20033;-69
2021/08/31 09:11:30;;;;;;;12.23;4.53;;;;;;;20.13;62.81;102807.59;5089696;28;20020;-67
2021/08/31 09:14:18;;;;;;;14.55;4.28;;;;;;;20.68;60.79;102811.72;5085782;28;20025;-66
2021/08/31 09:16:46;;;;;;;12.85;4.97;;;;;;;20.42;60.95;102818.56;5070168;28;20475;-68
2021/08/31 09:19:12;;;;;;;11.52;4.20;;;;;;;20.55;61.25;102819.63;5071298;28;20210;-68
2021/08/31 09:21:38;;;;;;;12.68;4.75;;;;;;;20.76;61.13;102814.03;5069899;28;20047;-65
2021/08/31 09:24:04;;;;;;;12.05;4.68;;;;;;;21.14;60.25;102810.94;5062413;28;20020;-65
2021/08/31 09:26:41;;;;;;;12.02;4.78;;;;;;;21.24;58.84;102822.03;5069682;28;20483;-67
2021/08/31 09:29:23;;;;;;;10.75;4.50;;;;;;;22.38;55.17;102825.94;5065802;28;20033;-65
2021/08/31 09:31:56;;;;;;;12.02;4.60;;;;;;;22.91;51.46;102817.16;5073103;28;20038;-64
2021/08/31 09:34:39;;;;;;;13.13;4.32;;;;;;;23.36;50.56;102825.00;5090442;28;20181;-65
2021/08/31 09:37:27;;;;;;;13.45;4.80;;;;;;;24.52;48.90;102822.31;5089889;28;20035;-68
2021/08/31 09:40:01;;;;;;;13.50;4.18;;;;;;;25.33;45.18;102815.41;5077877;28;20572;-65
2021/08/31 09:42:26;;;;;;;13.43;4.75;;;;;;;26.00;43.73;102824.69;5049907;28;20020;-68
2021/08/31 09:45:03;;;;;;;11.63;4.78;;;;;;;26.49;41.39;102814.44;5050072;28;20166;-64
2021/08/31 09:47:34;;;;;;;10.45;4.65;;;;;;;25.96;43.53;102823.19;5049524;28;20512;-67
2021/08/31 09:49:59;;;;;;;7.78;4.22;;;;;;;25.51;44.49;102825.81;5057503;28;20096;-66
2021/08/31 09:52:25;;;;;;;10.20;4.53;;;;;;;25.67;44.28;102811.94;5069962;28;20077;-68
2021/08/31 09:54:51;;;;;;;11.27;4.68;;;;;;;26.07;44.66;102821.50;5089515;28;20035;-67
2021/08/31 09:57:38;;;;;;;11.45;4.10;;;;;;;25.91;44.16;102811.84;5090172;28;20046;-65
2021/08/31 10:00:06;;;;;;;10.90;4.38;;;;;;;25.66;44.69;102811.06;5086479;28;20127;-68
2021/08/31 10:02:31;;;;;;;11.60;4.80;;;;;;;25.95;44.26;102810.59;5080894;28;20020;-65
2021/08/31 10:04:58;;;;;;;13.57;4.65;;;;;;;26.72;43.50;102818.97;5086528;28;20031;-67
2021/08/31 10:07:24;;;;;;;14.18;4.95;;;;;;;25.70;43.79;102817.09;5075364;28;20080;-69
2021/08/31 10:09:50;;;;;;;12.57;4.78;;;;;;;24.75;47.01;102819.81;5074817;28;20528;-68
2021/08/31 10:12:19;;;;;;;12.45;4.75;;;;;;;24.89;46.01;102824.19;5077686;28;20093;-67
2021/08/31 10:14:45;;;;;;;15.13;4.80;;;;;;;23.34;49.60;102822.41;5089197;28;20020;-67
2021/08/31 10:17:12;;;;;;;11.23;5.05;;;;;;;22.24;53.29;102829.47;5082235;28;20100;-69
2021/08/31 10:19:41;;;;;;;15.40;5.47;;;;;;;21.77;55.76;102825.22;5070309;28;20131;-66
2021/08/31 10:22:10;;;;;;;16.95;5.20;;;;;;;21.09;58.30;102835.44;5074435;28;20044;-66
2021/08/31 10:24:36;;;;;;;13.65;5.25;;;;;;;20.89;57.96;102841.13;5089181;28;20036;-68
2021/08/31 10:27:39;;;;;;;18.00;5.22;;;;;;;20.69;59.56;102842.19;5087792;28;20336;-68
2021/08/31 10:30:16;;;;;;;15.95;5.30;;;;;;;21.15;59.14;102838.75;5073426;28;20033;-68
2021/08/31 10:32:43;;;;;;;14.77;5.50;;;;;;;21.49;57.58;102836.75;5079496;28;20096;-67
2021/08/31 10:35:09;;;;;;;14.60;5.18;;;;;;;21.96;56.26;102840.25;5070381;28;20085;-68
2021/08/31 10:37:52;;;;;;;15.43;4.90;;;;;;;23.00;55.12;102842.69;5073708;28;20091;-66
2021/08/31 10:40:34;;;;;;;11.88;4.75;;;;;;;23.66;50.93;102846.38;5086057;28;20134;-66
2021/08/31 10:43:02;;;;;;;12.13;4.55;;;;;;;23.73;51.22;102844.09;5070119;28;20472;-67
2021/08/31 10:45:53;;;;;;;13.18;4.78;;;;;;;23.53;51.52;102842.75;5072250;28;20043;-67
2021/08/31 10:48:24;;;;;;;16.43;5.10;;;;;;;23.02;51.91;102846.16;5079967;28;20040;-64
2021/08/31 10:51:05;;;;;;;12.10;4.75;;;;;;;23.39;51.93;102846.44;5080254;28;20033;-66
2021/08/31 10:53:41;;;;;;;14.27;4.82;;;;;;;23.13;51.52;102840.03;5057395;28;20032;-66
2021/08/31 10:56:28;;;;;;;13.75;4.88;;;;;;;22.54;53.38;102855.50;5069081;28;20100;-67
2021/08/31 10:58:59;;;;;;;14.40;4.60;;;;;;;22.23;54.72;102851.16;5069010;28;20154;-65
2021/08/31 11:01:27;;;;;;;10.85;4.68;;;;;;;22.53;54.31;102851.09;5068304;28;20040;-67
2021/08/31 11:03:54;;;;;;;14.52;4.78;;;;;;;23.25;52.96;102850.06;5068601;28;20024;-68
2021/08/31 11:06:25;;;;;;;13.70;4.72;;;;;;;23.54;51.78;102848.09;5069145;28;20027;-64
2021/08/31 11:09:08;;;;;;;9.60;3.92;;;;;;;23.31;51.21;102855.06;5073171;28;20059;-65
2021/08/31 11:11:34;;;;;;;14.73;4.90;;;;;;;22.38;53.86;102843.97;5080760;28;20035;-66
2021/08/31 11:13:59;;;;;;;17.27;5.47;;;;;;;22.34;54.38;102856.75;5088960;28;20102;-66